sensor_id;sensor_type;location;lat;lon;timestamp;P1;durP1;ratioP1;P2;durP2;ratioP2
1358;SDS011;673;48.098;14.422;2023-04-24T00:00:26;1.77;;;1.10;;
1358;SDS011;673;48.098;14.422;2023-04-24T00:02:53;1.80;;;1.70;;
1358;SDS011;673;48.098;14.422;2023-04-24T00:05:22;1.00;;;0.90;;
1358;SDS011;673;48.098;14.422;2023-04-24T00:07:49;1.40;;;1.10;;
1358;SDS011;673;48.098;14.422;2023-04-24T00:10:17;2.40;;;1.50;;
1358;SDS011;673;48.098;14.422;2023-04-24T00:12:45;1.20;;;1.10;;
1358;SDS011;673;48.098;14.422;2023-04-24T00:15:13;2.60;;;1.10;;
1358;SDS011;673;48.098;14.422;2023-04-24T00:17:40;0.80;;;0.80;;
1358;SDS011;673;48.098;14.422;2023-04-24T00:20:07;0.80;;;0.80;;
1358;SDS011;673;48.098;14.422;2023-04-24T00:22:36;1.00;;;0.90;;
1358;SDS011;673;48.098;14.422;2023-04-24T00:25:04;0.97;;;0.97;;
1358;SDS011;673;48.098;14.422;2023-04-24T00:27:31;1.70;;;0.67;;
1358;SDS011;673;48.098;14.422;2023-04-24T00:30:00;1.17;;;0.87;;
1358;SDS011;673;48.098;14.422;2023-04-24T00:32:28;2.30;;;0.70;;
1358;SDS011;673;48.098;14.422;2023-04-24T00:34:56;4.67;;;1.00;;
1358;SDS011;673;48.098;14.422;2023-04-24T00:37:22;0.87;;;0.80;;
1358;SDS011;673;48.098;14.422;2023-04-24T00:39:50;1.00;;;0.90;;
1358;SDS011;673;48.098;14.422;2023-04-24T00:42:17;1.63;;;0.70;;
1358;SDS011;673;48.098;14.422;2023-04-24T00:44:44;0.80;;;0.80;;
1358;SDS011;673;48.098;14.422;2023-04-24T00:47:11;1.17;;;0.70;;
1358;SDS011;673;48.098;14.422;2023-04-24T00:49:41;0.60;;;0.60;;
1358;SDS011;673;48.098;14.422;2023-04-24T00:52:08;0.80;;;0.70;;
1358;SDS011;673;48.098;14.422;2023-04-24T00:54:35;1.00;;;0.90;;
1358;SDS011;673;48.098;14.422;2023-04-24T00:57:02;0.73;;;0.70;;
1358;SDS011;673;48.098;14.422;2023-04-24T00:59:30;1.93;;;0.77;;
1358;SDS011;673;48.098;14.422;2023-04-24T01:01:57;1.53;;;0.87;;
1358;SDS011;673;48.098;14.422;2023-04-24T01:04:25;3.20;;;0.67;;
1358;SDS011;673;48.098;14.422;2023-04-24T01:06:53;1.63;;;0.80;;
1358;SDS011;673;48.098;14.422;2023-04-24T01:09:22;0.50;;;0.50;;
1358;SDS011;673;48.098;14.422;2023-04-24T01:11:50;1.67;;;0.60;;
1358;SDS011;673;48.098;14.422;2023-04-24T01:14:17;2.93;;;0.60;;
1358;SDS011;673;48.098;14.422;2023-04-24T01:16:44;0.80;;;0.70;;
1358;SDS011;673;48.098;14.422;2023-04-24T01:19:11;0.70;;;0.60;;
1358;SDS011;673;48.098;14.422;2023-04-24T01:21:39;0.60;;;0.60;;
1358;SDS011;673;48.098;14.422;2023-04-24T01:24:09;2.70;;;0.70;;
1358;SDS011;673;48.098;14.422;2023-04-24T01:26:36;0.80;;;0.63;;
1358;SDS011;673;48.098;14.422;2023-04-24T01:29:03;1.27;;;1.00;;
1358;SDS011;673;48.098;14.422;2023-04-24T01:31:30;1.30;;;0.50;;
1358;SDS011;673;48.098;14.422;2023-04-24T01:33:59;0.70;;;0.70;;
1358;SDS011;673;48.098;14.422;2023-04-24T01:36:26;0.77;;;0.50;;
1358;SDS011;673;48.098;14.422;2023-04-24T01:38:54;0.80;;;0.80;;
1358;SDS011;673;48.098;14.422;2023-04-24T01:41:23;1.00;;;0.67;;
1358;SDS011;673;48.098;14.422;2023-04-24T01:43:50;0.70;;;0.57;;
1358;SDS011;673;48.098;14.422;2023-04-24T01:46:17;0.80;;;0.63;;
1358;SDS011;673;48.098;14.422;2023-04-24T01:48:45;2.77;;;0.73;;
1358;SDS011;673;48.098;14.422;2023-04-24T01:51:12;0.93;;;0.60;;
1358;SDS011;673;48.098;14.422;2023-04-24T01:53:39;0.80;;;0.80;;
1358;SDS011;673;48.098;14.422;2023-04-24T01:56:06;0.80;;;0.60;;
1358;SDS011;673;48.098;14.422;2023-04-24T01:58:34;0.90;;;0.60;;
1358;SDS011;673;48.098;14.422;2023-04-24T02:01:02;0.60;;;0.60;;
1358;SDS011;673;48.098;14.422;2023-04-24T02:03:29;0.80;;;0.67;;
1358;SDS011;673;48.098;14.422;2023-04-24T02:05:56;0.80;;;0.63;;
1358;SDS011;673;48.098;14.422;2023-04-24T02:08:23;2.00;;;0.70;;
1358;SDS011;673;48.098;14.422;2023-04-24T02:10:50;0.50;;;0.50;;
1358;SDS011;673;48.098;14.422;2023-04-24T02:13:17;0.73;;;0.60;;
1358;SDS011;673;48.098;14.422;2023-04-24T02:15:45;1.33;;;0.50;;
1358;SDS011;673;48.098;14.422;2023-04-24T02:18:12;0.60;;;0.43;;
1358;SDS011;673;48.098;14.422;2023-04-24T02:20:40;0.60;;;0.50;;
1358;SDS011;673;48.098;14.422;2023-04-24T02:23:07;0.53;;;0.50;;
1358;SDS011;673;48.098;14.422;2023-04-24T02:25:34;0.50;;;0.50;;
1358;SDS011;673;48.098;14.422;2023-04-24T02:28:01;0.80;;;0.63;;
1358;SDS011;673;48.098;14.422;2023-04-24T02:30:28;0.60;;;0.60;;
1358;SDS011;673;48.098;14.422;2023-04-24T02:32:57;0.70;;;0.70;;
1358;SDS011;673;48.098;14.422;2023-04-24T02:35:23;1.37;;;0.70;;
1358;SDS011;673;48.098;14.422;2023-04-24T02:37:50;1.03;;;0.80;;
1358;SDS011;673;48.098;14.422;2023-04-24T02:40:17;0.90;;;0.90;;
1358;SDS011;673;48.098;14.422;2023-04-24T02:42:44;0.83;;;0.70;;
1358;SDS011;673;48.098;14.422;2023-04-24T02:45:11;0.60;;;0.60;;
1358;SDS011;673;48.098;14.422;2023-04-24T02:47:38;0.63;;;0.63;;
1358;SDS011;673;48.098;14.422;2023-04-24T02:50:07;0.80;;;0.80;;
1358;SDS011;673;48.098;14.422;2023-04-24T02:52:34;0.70;;;0.70;;
1358;SDS011;673;48.098;14.422;2023-04-24T02:55:02;1.80;;;0.83;;
1358;SDS011;673;48.098;14.422;2023-04-24T02:57:29;1.67;;;0.90;;
1358;SDS011;673;48.098;14.422;2023-04-24T02:59:56;0.73;;;0.60;;
1358;SDS011;673;48.098;14.422;2023-04-24T03:02:23;0.90;;;0.80;;
1358;SDS011;673;48.098;14.422;2023-04-24T03:04:50;0.80;;;0.60;;
1358;SDS011;673;48.098;14.422;2023-04-24T03:07:18;1.03;;;0.90;;
1358;SDS011;673;48.098;14.422;2023-04-24T03:09:46;0.80;;;0.63;;
1358;SDS011;673;48.098;14.422;2023-04-24T03:12:13;1.03;;;0.93;;
1358;SDS011;673;48.098;14.422;2023-04-24T03:14:42;0.80;;;0.70;;
1358;SDS011;673;48.098;14.422;2023-04-24T03:17:09;0.80;;;0.80;;
1358;SDS011;673;48.098;14.422;2023-04-24T03:19:36;0.70;;;0.60;;
1358;SDS011;673;48.098;14.422;2023-04-24T03:22:03;1.00;;;0.90;;
1358;SDS011;673;48.098;14.422;2023-04-24T03:24:32;2.20;;;1.13;;
1358;SDS011;673;48.098;14.422;2023-04-24T03:26:59;0.60;;;0.60;;
1358;SDS011;673;48.098;14.422;2023-04-24T03:29:26;0.80;;;0.70;;
1358;SDS011;673;48.098;14.422;2023-04-24T03:31:53;1.40;;;1.30;;
1358;SDS011;673;48.098;14.422;2023-04-24T03:34:20;1.30;;;1.10;;
1358;SDS011;673;48.098;14.422;2023-04-24T03:36:47;1.53;;;1.20;;
1358;SDS011;673;48.098;14.422;2023-04-24T03:39:13;2.10;;;1.50;;
1358;SDS011;673;48.098;14.422;2023-04-24T03:41:42;2.00;;;1.03;;
1358;SDS011;673;48.098;14.422;2023-04-24T03:44:09;1.50;;;1.23;;
1358;SDS011;673;48.098;14.422;2023-04-24T03:46:36;1.53;;;1.27;;
1358;SDS011;673;48.098;14.422;2023-04-24T03:49:03;1.53;;;1.10;;
1358;SDS011;673;48.098;14.422;2023-04-24T03:51:30;2.23;;;1.30;;
1358;SDS011;673;48.098;14.422;2023-04-24T03:53:57;3.13;;;1.27;;
1358;SDS011;673;48.098;14.422;2023-04-24T03:56:24;1.30;;;1.20;;
1358;SDS011;673;48.098;14.422;2023-04-24T03:58:52;4.53;;;1.63;;
1358;SDS011;673;48.098;14.422;2023-04-24T04:01:19;2.30;;;1.37;;
1358;SDS011;673;48.098;14.422;2023-04-24T04:03:46;1.73;;;1.43;;
1358;SDS011;673;48.098;14.422;2023-04-24T04:06:13;1.97;;;1.30;;
1358;SDS011;673;48.098;14.422;2023-04-24T04:08:40;1.53;;;0.80;;
1358;SDS011;673;48.098;14.422;2023-04-24T04:11:07;1.90;;;1.60;;
1358;SDS011;673;48.098;14.422;2023-04-24T04:13:34;1.73;;;1.00;;
1358;SDS011;673;48.098;14.422;2023-04-24T04:16:02;1.60;;;0.93;;
1358;SDS011;673;48.098;14.422;2023-04-24T04:18:30;1.03;;;0.80;;
1358;SDS011;673;48.098;14.422;2023-04-24T04:20:57;1.53;;;1.00;;
1358;SDS011;673;48.098;14.422;2023-04-24T04:23:26;0.87;;;0.60;;
1358;SDS011;673;48.098;14.422;2023-04-24T04:25:53;0.83;;;0.70;;
1358;SDS011;673;48.098;14.422;2023-04-24T04:28:20;0.93;;;0.60;;
1358;SDS011;673;48.098;14.422;2023-04-24T04:30:47;0.60;;;0.60;;
1358;SDS011;673;48.098;14.422;2023-04-24T04:33:15;0.83;;;0.50;;
1358;SDS011;673;48.098;14.422;2023-04-24T04:35:43;0.50;;;0.50;;
1358;SDS011;673;48.098;14.422;2023-04-24T04:38:13;0.47;;;0.40;;
1358;SDS011;673;48.098;14.422;2023-04-24T04:40:40;0.70;;;0.70;;
1358;SDS011;673;48.098;14.422;2023-04-24T04:43:07;0.87;;;0.50;;
1358;SDS011;673;48.098;14.422;2023-04-24T04:45:35;0.60;;;0.50;;
1358;SDS011;673;48.098;14.422;2023-04-24T04:48:04;0.60;;;0.50;;
1358;SDS011;673;48.098;14.422;2023-04-24T04:50:34;2.10;;;0.60;;
1358;SDS011;673;48.098;14.422;2023-04-24T04:53:01;0.60;;;0.50;;
1358;SDS011;673;48.098;14.422;2023-04-24T04:55:28;1.33;;;0.50;;
1358;SDS011;673;48.098;14.422;2023-04-24T04:57:55;0.60;;;0.50;;
1358;SDS011;673;48.098;14.422;2023-04-24T05:00:22;1.63;;;0.50;;
1358;SDS011;673;48.098;14.422;2023-04-24T05:02:50;2.03;;;0.70;;
1358;SDS011;673;48.098;14.422;2023-04-24T05:05:17;1.03;;;0.60;;
1358;SDS011;673;48.098;14.422;2023-04-24T05:07:46;0.50;;;0.50;;
1358;SDS011;673;48.098;14.422;2023-04-24T05:10:13;2.07;;;0.60;;
1358;SDS011;673;48.098;14.422;2023-04-24T05:12:40;0.90;;;0.50;;
1358;SDS011;673;48.098;14.422;2023-04-24T05:15:07;0.80;;;0.60;;
1358;SDS011;673;48.098;14.422;2023-04-24T05:17:34;0.60;;;0.57;;
1358;SDS011;673;48.098;14.422;2023-04-24T05:20:01;0.70;;;0.50;;
1358;SDS011;673;48.098;14.422;2023-04-24T05:22:30;1.00;;;0.60;;
1358;SDS011;673;48.098;14.422;2023-04-24T05:24:58;0.60;;;0.50;;
1358;SDS011;673;48.098;14.422;2023-04-24T05:27:25;0.80;;;0.70;;
1358;SDS011;673;48.098;14.422;2023-04-24T05:29:52;0.73;;;0.57;;
1358;SDS011;673;48.098;14.422;2023-04-24T05:32:19;0.73;;;0.70;;
1358;SDS011;673;48.098;14.422;2023-04-24T05:34:46;0.60;;;0.50;;
1358;SDS011;673;48.098;14.422;2023-04-24T05:37:13;1.53;;;0.70;;
1358;SDS011;673;48.098;14.422;2023-04-24T05:39:40;1.20;;;0.70;;
1358;SDS011;673;48.098;14.422;2023-04-24T05:42:09;0.70;;;0.50;;
1358;SDS011;673;48.098;14.422;2023-04-24T05:44:36;0.47;;;0.40;;
1358;SDS011;673;48.098;14.422;2023-04-24T05:47:03;0.93;;;0.60;;
1358;SDS011;673;48.098;14.422;2023-04-24T05:49:30;0.90;;;0.70;;
1358;SDS011;673;48.098;14.422;2023-04-24T05:51:57;0.80;;;0.60;;
1358;SDS011;673;48.098;14.422;2023-04-24T05:54:24;0.77;;;0.50;;
1358;SDS011;673;48.098;14.422;2023-04-24T05:56:51;0.60;;;0.50;;
1358;SDS011;673;48.098;14.422;2023-04-24T05:59:20;1.80;;;0.50;;
1358;SDS011;673;48.098;14.422;2023-04-24T06:01:47;0.80;;;0.60;;
1358;SDS011;673;48.098;14.422;2023-04-24T06:04:14;0.60;;;0.53;;
1358;SDS011;673;48.098;14.422;2023-04-24T06:06:41;0.93;;;0.63;;
1358;SDS011;673;48.098;14.422;2023-04-24T06:09:08;0.70;;;0.50;;
1358;SDS011;673;48.098;14.422;2023-04-24T06:11:35;0.73;;;0.50;;
1358;SDS011;673;48.098;14.422;2023-04-24T06:14:02;1.53;;;0.50;;
1358;SDS011;673;48.098;14.422;2023-04-24T06:16:31;0.67;;;0.67;;
1358;SDS011;673;48.098;14.422;2023-04-24T06:18:58;0.70;;;0.50;;
1358;SDS011;673;48.098;14.422;2023-04-24T06:21:25;0.50;;;0.40;;
1358;SDS011;673;48.098;14.422;2023-04-24T06:23:52;1.13;;;0.40;;
1358;SDS011;673;48.098;14.422;2023-04-24T06:26:21;0.40;;;0.40;;
1358;SDS011;673;48.098;14.422;2023-04-24T06:28:50;0.50;;;0.40;;
1358;SDS011;673;48.098;14.422;2023-04-24T06:31:18;0.50;;;0.47;;
1358;SDS011;673;48.098;14.422;2023-04-24T06:33:47;0.40;;;0.40;;
1358;SDS011;673;48.098;14.422;2023-04-24T06:36:14;0.70;;;0.40;;
1358;SDS011;673;48.098;14.422;2023-04-24T06:38:41;0.47;;;0.40;;
1358;SDS011;673;48.098;14.422;2023-04-24T06:41:09;0.50;;;0.40;;
1358;SDS011;673;48.098;14.422;2023-04-24T06:43:36;0.40;;;0.40;;
1358;SDS011;673;48.098;14.422;2023-04-24T06:46:03;1.00;;;0.40;;
1358;SDS011;673;48.098;14.422;2023-04-24T06:48:30;0.50;;;0.50;;
1358;SDS011;673;48.098;14.422;2023-04-24T06:50:58;0.43;;;0.43;;
1358;SDS011;673;48.098;14.422;2023-04-24T06:53:25;0.80;;;0.40;;
1358;SDS011;673;48.098;14.422;2023-04-24T06:55:52;0.50;;;0.40;;
1358;SDS011;673;48.098;14.422;2023-04-24T06:58:19;0.43;;;0.37;;
1358;SDS011;673;48.098;14.422;2023-04-24T07:00:46;0.70;;;0.57;;
1358;SDS011;673;48.098;14.422;2023-04-24T07:03:13;0.50;;;0.40;;
1358;SDS011;673;48.098;14.422;2023-04-24T07:05:41;1.53;;;0.50;;
1358;SDS011;673;48.098;14.422;2023-04-24T07:08:09;0.63;;;0.40;;
1358;SDS011;673;48.098;14.422;2023-04-24T07:10:36;1.40;;;0.47;;
1358;SDS011;673;48.098;14.422;2023-04-24T07:13:04;0.70;;;0.40;;
1358;SDS011;673;48.098;14.422;2023-04-24T07:15:32;0.73;;;0.63;;
1358;SDS011;673;48.098;14.422;2023-04-24T07:17:59;0.97;;;0.50;;
1358;SDS011;673;48.098;14.422;2023-04-24T07:20:26;0.60;;;0.60;;
1358;SDS011;673;48.098;14.422;2023-04-24T07:22:53;0.83;;;0.37;;
1358;SDS011;673;48.098;14.422;2023-04-24T07:25:21;0.80;;;0.50;;
1358;SDS011;673;48.098;14.422;2023-04-24T07:27:48;2.20;;;0.60;;
1358;SDS011;673;48.098;14.422;2023-04-24T07:30:15;0.80;;;0.70;;
1358;SDS011;673;48.098;14.422;2023-04-24T07:32:42;1.23;;;1.13;;
1358;SDS011;673;48.098;14.422;2023-04-24T07:35:09;0.60;;;0.50;;
1358;SDS011;673;48.098;14.422;2023-04-24T07:37:36;0.90;;;0.50;;
1358;SDS011;673;48.098;14.422;2023-04-24T07:40:03;0.80;;;0.67;;
1358;SDS011;673;48.098;14.422;2023-04-24T07:42:32;0.50;;;0.40;;
1358;SDS011;673;48.098;14.422;2023-04-24T07:45:01;3.03;;;0.70;;
1358;SDS011;673;48.098;14.422;2023-04-24T07:47:28;0.60;;;0.60;;
1358;SDS011;673;48.098;14.422;2023-04-24T07:49:55;0.70;;;0.60;;
1358;SDS011;673;48.098;14.422;2023-04-24T07:52:22;0.60;;;0.60;;
1358;SDS011;673;48.098;14.422;2023-04-24T07:54:49;1.23;;;0.50;;
1358;SDS011;673;48.098;14.422;2023-04-24T07:57:17;0.97;;;0.40;;
1358;SDS011;673;48.098;14.422;2023-04-24T07:59:46;2.03;;;0.50;;
1358;SDS011;673;48.098;14.422;2023-04-24T08:02:13;0.50;;;0.37;;
1358;SDS011;673;48.098;14.422;2023-04-24T08:04:40;0.50;;;0.40;;
1358;SDS011;673;48.098;14.422;2023-04-24T08:07:07;3.03;;;0.60;;
1358;SDS011;673;48.098;14.422;2023-04-24T08:09:34;0.60;;;0.47;;
1358;SDS011;673;48.098;14.422;2023-04-24T08:12:01;4.23;;;0.40;;
1358;SDS011;673;48.098;14.422;2023-04-24T08:14:28;3.77;;;0.60;;
1358;SDS011;673;48.098;14.422;2023-04-24T08:16:56;1.93;;;0.70;;
1358;SDS011;673;48.098;14.422;2023-04-24T08:19:25;0.70;;;0.70;;
1358;SDS011;673;48.098;14.422;2023-04-24T08:21:52;2.13;;;0.60;;
1358;SDS011;673;48.098;14.422;2023-04-24T08:24:19;1.57;;;0.60;;
1358;SDS011;673;48.098;14.422;2023-04-24T08:26:46;1.07;;;0.60;;
1358;SDS011;673;48.098;14.422;2023-04-24T08:29:15;0.60;;;0.50;;
1358;SDS011;673;48.098;14.422;2023-04-24T08:31:42;1.00;;;0.70;;
1358;SDS011;673;48.098;14.422;2023-04-24T08:34:10;0.60;;;0.50;;
1358;SDS011;673;48.098;14.422;2023-04-24T08:36:37;0.50;;;0.50;;
1358;SDS011;673;48.098;14.422;2023-04-24T08:39:05;2.00;;;0.50;;
1358;SDS011;673;48.098;14.422;2023-04-24T08:41:33;0.50;;;0.50;;
1358;SDS011;673;48.098;14.422;2023-04-24T08:44:01;1.70;;;0.83;;
1358;SDS011;673;48.098;14.422;2023-04-24T08:46:29;1.00;;;0.63;;
1358;SDS011;673;48.098;14.422;2023-04-24T08:48:56;0.53;;;0.50;;
1358;SDS011;673;48.098;14.422;2023-04-24T08:51:26;0.57;;;0.50;;
1358;SDS011;673;48.098;14.422;2023-04-24T08:53:53;0.97;;;0.40;;
1358;SDS011;673;48.098;14.422;2023-04-24T08:56:21;0.83;;;0.70;;
1358;SDS011;673;48.098;14.422;2023-04-24T08:58:49;1.00;;;0.40;;
1358;SDS011;673;48.098;14.422;2023-04-24T09:01:17;0.43;;;0.43;;
1358;SDS011;673;48.098;14.422;2023-04-24T09:03:46;0.53;;;0.43;;
1358;SDS011;673;48.098;14.422;2023-04-24T09:06:14;0.80;;;0.60;;
1358;SDS011;673;48.098;14.422;2023-04-24T09:08:45;6.63;;;0.50;;
1358;SDS011;673;48.098;14.422;2023-04-24T09:11:14;0.40;;;0.40;;
1358;SDS011;673;48.098;14.422;2023-04-24T09:13:41;0.40;;;0.37;;
1358;SDS011;673;48.098;14.422;2023-04-24T09:16:09;1.17;;;0.33;;
1358;SDS011;673;48.098;14.422;2023-04-24T09:18:36;0.90;;;0.50;;
1358;SDS011;673;48.098;14.422;2023-04-24T09:21:04;0.97;;;0.30;;
1358;SDS011;673;48.098;14.422;2023-04-24T09:23:34;0.80;;;0.30;;
1358;SDS011;673;48.098;14.422;2023-04-24T09:26:03;0.97;;;0.40;;
1358;SDS011;673;48.098;14.422;2023-04-24T09:28:32;0.53;;;0.40;;
1358;SDS011;673;48.098;14.422;2023-04-24T09:31:03;0.37;;;0.30;;
1358;SDS011;673;48.098;14.422;2023-04-24T09:33:32;0.40;;;0.30;;
1358;SDS011;673;48.098;14.422;2023-04-24T09:35:59;0.50;;;0.40;;
1358;SDS011;673;48.098;14.422;2023-04-24T09:38:32;0.50;;;0.40;;
1358;SDS011;673;48.098;14.422;2023-04-24T09:41:04;0.50;;;0.30;;
1358;SDS011;673;48.098;14.422;2023-04-24T09:43:32;0.50;;;0.40;;
1358;SDS011;673;48.098;14.422;2023-04-24T09:46:03;2.30;;;0.40;;
1358;SDS011;673;48.098;14.422;2023-04-24T09:48:33;2.40;;;0.30;;
1358;SDS011;673;48.098;14.422;2023-04-24T09:51:01;0.70;;;0.40;;
1358;SDS011;673;48.098;14.422;2023-04-24T09:53:32;2.73;;;0.33;;
1358;SDS011;673;48.098;14.422;2023-04-24T09:56:05;0.40;;;0.30;;
1358;SDS011;673;48.098;14.422;2023-04-24T09:58:34;0.60;;;0.30;;
1358;SDS011;673;48.098;14.422;2023-04-24T10:01:03;0.40;;;0.30;;
1358;SDS011;673;48.098;14.422;2023-04-24T10:03:30;0.40;;;0.30;;
1358;SDS011;673;48.098;14.422;2023-04-24T10:05:58;0.60;;;0.40;;
1358;SDS011;673;48.098;14.422;2023-04-24T10:08:26;1.47;;;0.40;;
1358;SDS011;673;48.098;14.422;2023-04-24T10:10:58;1.03;;;0.30;;
1358;SDS011;673;48.098;14.422;2023-04-24T10:13:28;0.97;;;0.30;;
1358;SDS011;673;48.098;14.422;2023-04-24T10:15:55;1.13;;;0.30;;
1358;SDS011;673;48.098;14.422;2023-04-24T10:18:25;0.80;;;0.30;;
1358;SDS011;673;48.098;14.422;2023-04-24T10:20:53;0.67;;;0.37;;
1358;SDS011;673;48.098;14.422;2023-04-24T10:23:21;0.40;;;0.40;;
1358;SDS011;673;48.098;14.422;2023-04-24T10:25:48;0.43;;;0.30;;
1358;SDS011;673;48.098;14.422;2023-04-24T10:28:17;0.80;;;0.30;;
1358;SDS011;673;48.098;14.422;2023-04-24T10:30:46;0.50;;;0.40;;
1358;SDS011;673;48.098;14.422;2023-04-24T10:33:14;8.13;;;0.40;;
1358;SDS011;673;48.098;14.422;2023-04-24T10:35:44;0.40;;;0.40;;
1358;SDS011;673;48.098;14.422;2023-04-24T10:38:15;0.70;;;0.50;;
1358;SDS011;673;48.098;14.422;2023-04-24T10:40:49;0.53;;;0.30;;
1358;SDS011;673;48.098;14.422;2023-04-24T10:43:16;0.70;;;0.40;;
1358;SDS011;673;48.098;14.422;2023-04-24T10:48:43;0.67;;;0.37;;
1358;SDS011;673;48.098;14.422;2023-04-24T10:51:18;1.03;;;0.30;;
1358;SDS011;673;48.098;14.422;2023-04-24T10:53:47;0.60;;;0.30;;
1358;SDS011;673;48.098;14.422;2023-04-24T10:56:16;2.43;;;0.40;;
1358;SDS011;673;48.098;14.422;2023-04-24T10:58:45;1.03;;;0.30;;
1358;SDS011;673;48.098;14.422;2023-04-24T11:01:23;0.40;;;0.40;;
1358;SDS011;673;48.098;14.422;2023-04-24T11:03:55;0.43;;;0.30;;
1358;SDS011;673;48.098;14.422;2023-04-24T11:06:29;0.60;;;0.30;;
1358;SDS011;673;48.098;14.422;2023-04-24T11:09:07;0.80;;;0.40;;
1358;SDS011;673;48.098;14.422;2023-04-24T11:11:37;1.07;;;0.30;;
1358;SDS011;673;48.098;14.422;2023-04-24T11:14:10;0.50;;;0.40;;
1358;SDS011;673;48.098;14.422;2023-04-24T11:16:43;0.80;;;0.43;;
1358;SDS011;673;48.098;14.422;2023-04-24T11:19:20;1.27;;;0.40;;
1358;SDS011;673;48.098;14.422;2023-04-24T11:21:54;1.67;;;0.40;;
1358;SDS011;673;48.098;14.422;2023-04-24T11:24:29;0.83;;;0.40;;
1358;SDS011;673;48.098;14.422;2023-04-24T11:26:58;0.50;;;0.40;;
1358;SDS011;673;48.098;14.422;2023-04-24T11:29:44;1.23;;;0.40;;
1358;SDS011;673;48.098;14.422;2023-04-24T11:32:16;2.03;;;0.40;;
1358;SDS011;673;48.098;14.422;2023-04-24T11:34:47;0.60;;;0.47;;
1358;SDS011;673;48.098;14.422;2023-04-24T11:37:14;1.37;;;0.40;;
1358;SDS011;673;48.098;14.422;2023-04-24T11:39:42;0.80;;;0.50;;
1358;SDS011;673;48.098;14.422;2023-04-24T11:42:09;0.50;;;0.40;;
1358;SDS011;673;48.098;14.422;2023-04-24T11:44:36;0.60;;;0.40;;
1358;SDS011;673;48.098;14.422;2023-04-24T11:47:04;0.53;;;0.40;;
1358;SDS011;673;48.098;14.422;2023-04-24T11:49:32;4.20;;;0.40;;
1358;SDS011;673;48.098;14.422;2023-04-24T11:52:00;0.60;;;0.30;;
1358;SDS011;673;48.098;14.422;2023-04-24T11:54:27;0.70;;;0.37;;
1358;SDS011;673;48.098;14.422;2023-04-24T11:56:55;0.50;;;0.43;;
1358;SDS011;673;48.098;14.422;2023-04-24T11:59:23;0.40;;;0.30;;
1358;SDS011;673;48.098;14.422;2023-04-24T12:01:50;0.43;;;0.40;;
1358;SDS011;673;48.098;14.422;2023-04-24T12:04:17;0.50;;;0.40;;
1358;SDS011;673;48.098;14.422;2023-04-24T12:07:03;0.40;;;0.33;;
1358;SDS011;673;48.098;14.422;2023-04-24T12:09:40;2.87;;;0.40;;
1358;SDS011;673;48.098;14.422;2023-04-24T12:12:08;1.20;;;0.40;;
1358;SDS011;673;48.098;14.422;2023-04-24T12:14:41;1.53;;;0.40;;
1358;SDS011;673;48.098;14.422;2023-04-24T12:17:15;0.50;;;0.40;;
1358;SDS011;673;48.098;14.422;2023-04-24T12:19:46;0.87;;;0.60;;
1358;SDS011;673;48.098;14.422;2023-04-24T12:22:15;0.50;;;0.30;;
1358;SDS011;673;48.098;14.422;2023-04-24T12:24:55;0.83;;;0.30;;
1358;SDS011;673;48.098;14.422;2023-04-24T12:27:23;0.40;;;0.30;;
1358;SDS011;673;48.098;14.422;2023-04-24T12:29:53;0.50;;;0.40;;
1358;SDS011;673;48.098;14.422;2023-04-24T12:32:22;0.40;;;0.40;;
1358;SDS011;673;48.098;14.422;2023-04-24T12:34:50;0.70;;;0.40;;
1358;SDS011;673;48.098;14.422;2023-04-24T12:37:19;1.07;;;0.40;;
1358;SDS011;673;48.098;14.422;2023-04-24T12:39:58;3.07;;;0.50;;
1358;SDS011;673;48.098;14.422;2023-04-24T12:42:26;1.23;;;0.60;;
1358;SDS011;673;48.098;14.422;2023-04-24T12:44:56;0.60;;;0.50;;
1358;SDS011;673;48.098;14.422;2023-04-24T12:47:24;1.10;;;0.50;;
1358;SDS011;673;48.098;14.422;2023-04-24T12:49:52;0.93;;;0.50;;
1358;SDS011;673;48.098;14.422;2023-04-24T12:52:21;1.53;;;0.60;;
1358;SDS011;673;48.098;14.422;2023-04-24T12:54:48;0.70;;;0.60;;
1358;SDS011;673;48.098;14.422;2023-04-24T12:57:16;0.80;;;0.60;;
1358;SDS011;673;48.098;14.422;2023-04-24T12:59:43;0.50;;;0.40;;
1358;SDS011;673;48.098;14.422;2023-04-24T13:02:10;0.60;;;0.40;;
1358;SDS011;673;48.098;14.422;2023-04-24T13:04:37;1.53;;;0.50;;
1358;SDS011;673;48.098;14.422;2023-04-24T13:07:04;2.07;;;1.93;;
1358;SDS011;673;48.098;14.422;2023-04-24T13:09:34;1.30;;;0.50;;
1358;SDS011;673;48.098;14.422;2023-04-24T13:12:01;1.40;;;0.50;;
1358;SDS011;673;48.098;14.422;2023-04-24T13:14:30;0.73;;;0.40;;
1358;SDS011;673;48.098;14.422;2023-04-24T13:16:57;0.50;;;0.50;;
1358;SDS011;673;48.098;14.422;2023-04-24T13:19:24;0.50;;;0.50;;
1358;SDS011;673;48.098;14.422;2023-04-24T13:21:52;1.93;;;0.90;;
1358;SDS011;673;48.098;14.422;2023-04-24T13:24:20;0.60;;;0.60;;
1358;SDS011;673;48.098;14.422;2023-04-24T13:26:51;0.90;;;0.90;;
1358;SDS011;673;48.098;14.422;2023-04-24T13:29:18;1.63;;;1.00;;
1358;SDS011;673;48.098;14.422;2023-04-24T13:31:46;1.43;;;0.60;;
1358;SDS011;673;48.098;14.422;2023-04-24T13:34:13;0.97;;;0.70;;
1358;SDS011;673;48.098;14.422;2023-04-24T13:36:39;2.23;;;0.70;;
1358;SDS011;673;48.098;14.422;2023-04-24T13:39:06;1.10;;;0.60;;
1358;SDS011;673;48.098;14.422;2023-04-24T13:41:33;0.80;;;0.50;;
1358;SDS011;673;48.098;14.422;2023-04-24T13:44:02;0.70;;;0.50;;
1358;SDS011;673;48.098;14.422;2023-04-24T13:46:30;0.60;;;0.40;;
1358;SDS011;673;48.098;14.422;2023-04-24T13:48:57;0.47;;;0.40;;
1358;SDS011;673;48.098;14.422;2023-04-24T13:51:24;0.60;;;0.50;;
1358;SDS011;673;48.098;14.422;2023-04-24T13:53:52;0.60;;;0.47;;
1358;SDS011;673;48.098;14.422;2023-04-24T13:56:19;2.30;;;0.63;;
1358;SDS011;673;48.098;14.422;2023-04-24T13:58:46;0.50;;;0.50;;
1358;SDS011;673;48.098;14.422;2023-04-24T14:01:14;0.80;;;0.60;;
1358;SDS011;673;48.098;14.422;2023-04-24T14:03:42;4.87;;;0.70;;
1358;SDS011;673;48.098;14.422;2023-04-24T14:06:09;1.13;;;0.70;;
1358;SDS011;673;48.098;14.422;2023-04-24T14:08:36;1.33;;;0.73;;
1358;SDS011;673;48.098;14.422;2023-04-24T14:11:03;1.00;;;0.80;;
1358;SDS011;673;48.098;14.422;2023-04-24T14:13:31;2.70;;;0.70;;
1358;SDS011;673;48.098;14.422;2023-04-24T14:15:58;0.90;;;0.60;;
1358;SDS011;673;48.098;14.422;2023-04-24T14:18:26;0.90;;;0.60;;
1358;SDS011;673;48.098;14.422;2023-04-24T14:20:53;0.70;;;0.60;;
1358;SDS011;673;48.098;14.422;2023-04-24T14:23:20;1.10;;;0.70;;
1358;SDS011;673;48.098;14.422;2023-04-24T14:25:47;2.03;;;0.60;;
1358;SDS011;673;48.098;14.422;2023-04-24T14:28:17;0.70;;;0.70;;
1358;SDS011;673;48.098;14.422;2023-04-24T14:30:44;0.70;;;0.70;;
1358;SDS011;673;48.098;14.422;2023-04-24T14:33:11;2.50;;;0.60;;
1358;SDS011;673;48.098;14.422;2023-04-24T14:35:40;0.90;;;0.73;;
1358;SDS011;673;48.098;14.422;2023-04-24T14:38:08;2.30;;;0.70;;
1358;SDS011;673;48.098;14.422;2023-04-24T14:40:35;0.70;;;0.63;;
1358;SDS011;673;48.098;14.422;2023-04-24T14:43:03;1.50;;;0.70;;
1358;SDS011;673;48.098;14.422;2023-04-24T14:45:30;3.73;;;0.60;;
1358;SDS011;673;48.098;14.422;2023-04-24T14:47:57;0.70;;;0.60;;
1358;SDS011;673;48.098;14.422;2023-04-24T14:50:24;1.03;;;0.80;;
1358;SDS011;673;48.098;14.422;2023-04-24T14:52:54;1.93;;;0.67;;
1358;SDS011;673;48.098;14.422;2023-04-24T14:55:22;2.20;;;1.10;;
1358;SDS011;673;48.098;14.422;2023-04-24T14:57:49;1.47;;;1.00;;
1358;SDS011;673;48.098;14.422;2023-04-24T15:00:17;1.00;;;0.90;;
1358;SDS011;673;48.098;14.422;2023-04-24T15:02:45;1.00;;;0.90;;
1358;SDS011;673;48.098;14.422;2023-04-24T15:05:12;3.33;;;1.00;;
1358;SDS011;673;48.098;14.422;2023-04-24T15:07:39;1.90;;;0.90;;
1358;SDS011;673;48.098;14.422;2023-04-24T15:10:09;0.70;;;0.60;;
1358;SDS011;673;48.098;14.422;2023-04-24T15:12:36;1.00;;;0.80;;
1358;SDS011;673;48.098;14.422;2023-04-24T15:15:04;1.50;;;0.93;;
1358;SDS011;673;48.098;14.422;2023-04-24T15:17:31;1.63;;;1.17;;
1358;SDS011;673;48.098;14.422;2023-04-24T15:19:58;2.17;;;0.73;;
1358;SDS011;673;48.098;14.422;2023-04-24T15:22:25;1.20;;;1.10;;